sensor_id;sensor_type;location;lat;lon;timestamp;pressure;altitude;pressure_sealevel;temperature;humidity
34979;BME280;21185;50.978;13.720;2022-12-05T00:04:02;98111.63;;;6.29;86.41
34979;BME280;21185;50.978;13.720;2022-12-05T00:09:06;98107.28;;;6.30;86.27
34979;BME280;21185;50.978;13.720;2022-12-05T00:14:09;98112.31;;;6.31;86.09
34979;BME280;21185;50.978;13.720;2022-12-05T00:19:13;98113.25;;;6.30;86.38
34979;BME280;21185;50.978;13.720;2022-12-05T00:24:15;98124.38;;;6.31;86.33
34979;BME280;21185;50.978;13.720;2022-12-05T00:29:17;98118.28;;;6.32;86.20
34979;BME280;21185;50.978;13.720;2022-12-05T00:34:19;98123.28;;;6.33;86.06
34979;BME280;21185;50.978;13.720;2022-12-05T00:39:21;98123.28;;;6.33;86.21
34979;BME280;21185;50.978;13.720;2022-12-05T00:44:25;98129.41;;;6.32;86.29
34979;BME280;21185;50.978;13.720;2022-12-05T00:49:26;98133.72;;;6.32;86.14
34979;BME280;21185;50.978;13.720;2022-12-05T00:54:28;98134.41;;;6.34;86.03
34979;BME280;21185;50.978;13.720;2022-12-05T00:59:30;98125.88;;;6.33;86.21
34979;BME280;21185;50.978;13.720;2022-12-05T01:04:32;98118.94;;;6.34;86.23
34979;BME280;21185;50.978;13.720;2022-12-05T01:09:34;98134.00;;;6.38;86.11
34979;BME280;21185;50.978;13.720;2022-12-05T01:14:36;98138.19;;;6.39;86.07
34979;BME280;21185;50.978;13.720;2022-12-05T01:19:39;98145.13;;;6.39;86.13
34979;BME280;21185;50.978;13.720;2022-12-05T01:24:43;98135.47;;;6.41;86.10
34979;BME280;21185;50.978;13.720;2022-12-05T01:29:46;98130.47;;;6.39;86.14
34979;BME280;21185;50.978;13.720;2022-12-05T01:34:54;98130.75;;;6.36;86.36
34979;BME280;21185;50.978;13.720;2022-12-05T01:39:57;98134.00;;;6.38;86.23
34979;BME280;21185;50.978;13.720;2022-12-05T01:45:06;98139.44;;;6.35;86.05
34979;BME280;21185;50.978;13.720;2022-12-05T01:50:08;98133.59;;;6.33;86.23
34979;BME280;21185;50.978;13.720;2022-12-05T01:55:13;98138.75;;;6.33;86.23
34979;BME280;21185;50.978;13.720;2022-12-05T02:00:19;98132.78;;;6.33;86.17
34979;BME280;21185;50.978;13.720;2022-12-05T02:05:32;98129.25;;;6.34;86.19
34979;BME280;21185;50.978;13.720;2022-12-05T02:10:44;98139.28;;;6.37;86.36
34979;BME280;21185;50.978;13.720;2022-12-05T02:31:50;98140.91;;;6.38;86.37
34979;BME280;21185;50.978;13.720;2022-12-05T02:42:12;98139.16;;;6.38;86.24
34979;BME280;21185;50.978;13.720;2022-12-05T02:47:17;98138.34;;;6.38;86.35
34979;BME280;21185;50.978;13.720;2022-12-05T02:52:24;98137.25;;;6.40;86.17
34979;BME280;21185;50.978;13.720;2022-12-05T02:57:26;98138.72;;;6.43;86.12
34979;BME280;21185;50.978;13.720;2022-12-05T03:02:33;98127.88;;;6.39;86.07
34979;BME280;21185;50.978;13.720;2022-12-05T03:07:37;98120.28;;;6.38;86.38
34979;BME280;21185;50.978;13.720;2022-12-05T03:12:43;98126.25;;;6.38;86.22
34979;BME280;21185;50.978;13.720;2022-12-05T03:18:43;98129.78;;;6.37;86.20
34979;BME280;21185;50.978;13.720;2022-12-05T03:23:40;98125.72;;;6.35;86.39
34979;BME280;21185;50.978;13.720;2022-12-05T03:33:56;98133.19;;;6.38;86.11
34979;BME280;21185;50.978;13.720;2022-12-05T03:39:08;98147.81;;;6.37;86.32
34979;BME280;21185;50.978;13.720;2022-12-05T03:49:43;98146.19;;;6.36;86.14
34979;BME280;21185;50.978;13.720;2022-12-05T03:54:52;98142.81;;;6.36;86.28
34979;BME280;21185;50.978;13.720;2022-12-05T04:00:00;98141.72;;;6.38;86.31
34979;BME280;21185;50.978;13.720;2022-12-05T04:05:09;98144.97;;;6.40;86.20
34979;BME280;21185;50.978;13.720;2022-12-05T04:10:17;98154.47;;;6.40;86.27
34979;BME280;21185;50.978;13.720;2022-12-05T04:15:25;98161.13;;;6.42;86.14
34979;BME280;21185;50.978;13.720;2022-12-05T04:20:49;98154.19;;;6.43;86.25
34979;BME280;21185;50.978;13.720;2022-12-05T04:26:24;98152.16;;;6.46;86.15
34979;BME280;21185;50.978;13.720;2022-12-05T04:31:31;98154.31;;;6.51;85.91
34979;BME280;21185;50.978;13.720;2022-12-05T04:36:41;98158.25;;;6.45;85.92
34979;BME280;21185;50.978;13.720;2022-12-05T04:47:06;98162.75;;;6.43;86.03
34979;BME280;21185;50.978;13.720;2022-12-05T04:52:11;98168.03;;;6.42;86.04
34979;BME280;21185;50.978;13.720;2022-12-05T04:57:18;98174.28;;;6.39;85.96
34979;BME280;21185;50.978;13.720;2022-12-05T05:02:33;98181.06;;;6.40;86.15
34979;BME280;21185;50.978;13.720;2022-12-05T05:07:52;98183.78;;;6.39;86.09
34979;BME280;21185;50.978;13.720;2022-12-05T05:12:55;98186.34;;;6.39;86.15
34979;BME280;21185;50.978;13.720;2022-12-05T05:17:56;98185.81;;;6.35;85.80
34979;BME280;21185;50.978;13.720;2022-12-05T05:22:58;98184.47;;;6.31;86.08
34979;BME280;21185;50.978;13.720;2022-12-05T05:28:00;98181.06;;;6.31;86.01
34979;BME280;21185;50.978;13.720;2022-12-05T05:33:02;98192.19;;;6.31;86.16
34979;BME280;21185;50.978;13.720;2022-12-05T05:38:04;98193.69;;;6.34;86.26
34979;BME280;21185;50.978;13.720;2022-12-05T05:43:06;98191.91;;;6.34;86.12
34979;BME280;21185;50.978;13.720;2022-12-05T05:48:07;98207.38;;;6.34;86.13
34979;BME280;21185;50.978;13.720;2022-12-05T05:53:09;98206.44;;;6.35;86.06
34979;BME280;21185;50.978;13.720;2022-12-05T05:58:11;98206.44;;;6.35;86.13
34979;BME280;21185;50.978;13.720;2022-12-05T06:03:13;98205.34;;;6.38;86.04
34979;BME280;21185;50.978;13.720;2022-12-05T06:08:15;98212.66;;;6.42;86.03
34979;BME280;21185;50.978;13.720;2022-12-05T06:13:18;98214.16;;;6.45;85.86
34979;BME280;21185;50.978;13.720;2022-12-05T06:18:19;98212.09;;;6.48;85.96
34979;BME280;21185;50.978;13.720;2022-12-05T06:23:22;98223.09;;;6.50;85.75
34979;BME280;21185;50.978;13.720;2022-12-05T06:28:25;98229.88;;;6.52;85.82
34979;BME280;21185;50.978;13.720;2022-12-05T06:33:27;98232.31;;;6.53;85.88
34979;BME280;21185;50.978;13.720;2022-12-05T06:38:29;98248.59;;;6.54;85.83
34979;BME280;21185;50.978;13.720;2022-12-05T06:43:31;98259.72;;;6.54;85.80
34979;BME280;21185;50.978;13.720;2022-12-05T06:48:32;98266.66;;;6.54;85.96
34979;BME280;21185;50.978;13.720;2022-12-05T06:53:34;98276.00;;;6.55;85.79
34979;BME280;21185;50.978;13.720;2022-12-05T06:58:36;98277.63;;;6.56;85.87
34979;BME280;21185;50.978;13.720;2022-12-05T07:03:39;98272.34;;;6.57;85.85
34979;BME280;21185;50.978;13.720;2022-12-05T07:08:41;98270.56;;;6.58;85.96
34979;BME280;21185;50.978;13.720;2022-12-05T07:13:43;98277.50;;;6.57;85.84
34979;BME280;21185;50.978;13.720;2022-12-05T07:18:45;98282.53;;;6.59;85.95
34979;BME280;21185;50.978;13.720;2022-12-05T07:23:47;98266.22;;;6.58;85.88
34979;BME280;21185;50.978;13.720;2022-12-05T07:28:51;98281.56;;;6.60;86.01
34979;BME280;21185;50.978;13.720;2022-12-05T07:33:55;98288.22;;;6.62;85.90
34979;BME280;21185;50.978;13.720;2022-12-05T07:38:57;98287.25;;;6.63;86.05
34979;BME280;21185;50.978;13.720;2022-12-05T07:43:59;98288.75;;;6.66;86.09
34979;BME280;21185;50.978;13.720;2022-12-05T07:49:01;98296.34;;;6.67;85.93
34979;BME280;21185;50.978;13.720;2022-12-05T07:54:03;98293.63;;;6.69;86.07
34979;BME280;21185;50.978;13.720;2022-12-05T07:59:05;98306.13;;;6.73;86.12
34979;BME280;21185;50.978;13.720;2022-12-05T08:04:06;98310.31;;;6.74;85.91
34979;BME280;21185;50.978;13.720;2022-12-05T08:09:15;98301.63;;;6.75;85.99
34979;BME280;21185;50.978;13.720;2022-12-05T08:14:17;98308.28;;;6.78;86.14
34979;BME280;21185;50.978;13.720;2022-12-05T08:19:19;98316.03;;;6.78;86.18
34979;BME280;21185;50.978;13.720;2022-12-05T08:24:21;98315.06;;;6.79;85.97
34979;BME280;21185;50.978;13.720;2022-12-05T08:29:23;98319.28;;;6.80;86.04
34979;BME280;21185;50.978;13.720;2022-12-05T08:34:25;98327.56;;;6.83;86.17
34979;BME280;21185;50.978;13.720;2022-12-05T08:39:27;98322.94;;;6.87;86.06
34979;BME280;21185;50.978;13.720;2022-12-05T08:44:35;98323.34;;;6.92;86.00
34979;BME280;21185;50.978;13.720;2022-12-05T08:49:37;98324.97;;;6.93;85.95
34979;BME280;21185;50.978;13.720;2022-12-05T08:54:39;98327.56;;;6.93;86.10
34979;BME280;21185;50.978;13.720;2022-12-05T08:59:41;98333.53;;;6.94;86.13
34979;BME280;21185;50.978;13.720;2022-12-05T09:04:49;98338.41;;;6.97;86.14
34979;BME280;21185;50.978;13.720;2022-12-05T09:09:54;98345.34;;;6.96;86.06
34979;BME280;21185;50.978;13.720;2022-12-05T09:14:56;98344.38;;;6.97;85.95
34979;BME280;21185;50.978;13.720;2022-12-05T09:19:59;98355.66;;;6.96;85.95
34979;BME280;21185;50.978;13.720;2022-12-05T09:25:01;98364.19;;;6.97;85.91
34979;BME280;21185;50.978;13.720;2022-12-05T09:30:04;98372.75;;;6.97;85.97
34979;BME280;21185;50.978;13.720;2022-12-05T09:35:06;98376.16;;;6.98;86.04
34979;BME280;21185;50.978;13.720;2022-12-05T09:40:15;98363.25;;;6.98;85.86
34979;BME280;21185;50.978;13.720;2022-12-05T09:45:39;98371.81;;;6.98;85.85
34979;BME280;21185;50.978;13.720;2022-12-05T09:50:49;98372.75;;;6.97;85.84
34979;BME280;21185;50.978;13.720;2022-12-05T09:56:03;98366.91;;;6.95;85.87
34979;BME280;21185;50.978;13.720;2022-12-05T10:06:44;98385.94;;;6.94;85.85
34979;BME280;21185;50.978;13.720;2022-12-05T10:11:55;98386.06;;;6.93;85.75
34979;BME280;21185;50.978;13.720;2022-12-05T10:17:06;98383.63;;;6.91;85.69
34979;BME280;21185;50.978;13.720;2022-12-05T10:22:13;98391.63;;;6.88;85.55
34979;BME280;21185;50.978;13.720;2022-12-05T10:27:31;98382.53;;;6.84;85.51
34979;BME280;21185;50.978;13.720;2022-12-05T10:37:52;98372.34;;;6.82;85.58
34979;BME280;21185;50.978;13.720;2022-12-05T10:42:55;98369.63;;;6.84;85.46
34979;BME280;21185;50.978;13.720;2022-12-05T10:47:57;98372.63;;;6.89;85.52
34979;BME280;21185;50.978;13.720;2022-12-05T10:53:01;98366.66;;;6.89;85.35
34979;BME280;21185;50.978;13.720;2022-12-05T11:03:30;98369.78;;;6.92;85.22
34979;BME280;21185;50.978;13.720;2022-12-05T11:08:33;98363.53;;;6.95;85.15
34979;BME280;21185;50.978;13.720;2022-12-05T11:13:58;98372.09;;;6.95;85.39
34979;BME280;21185;50.978;13.720;2022-12-05T11:29:37;98356.06;;;6.92;85.19
34979;BME280;21185;50.978;13.720;2022-12-05T11:35:00;98354.16;;;6.94;85.14
34979;BME280;21185;50.978;13.720;2022-12-05T11:50:40;98356.31;;;6.98;85.18
34979;BME280;21185;50.978;13.720;2022-12-05T11:56:05;98350.63;;;6.95;85.14
34979;BME280;21185;50.978;13.720;2022-12-05T12:06:28;98362.97;;;6.91;85.28
34979;BME280;21185;50.978;13.720;2022-12-05T12:11:46;98357.16;;;6.89;85.12
34979;BME280;21185;50.978;13.720;2022-12-05T12:28:19;98333.53;;;6.84;84.98
34979;BME280;21185;50.978;13.720;2022-12-05T13:05:35;98323.19;;;7.03;84.72
34979;BME280;21185;50.978;13.720;2022-12-05T13:10:43;98321.97;;;7.07;84.64
34979;BME280;21185;50.978;13.720;2022-12-05T13:15:57;98336.63;;;7.07;84.54
34979;BME280;21185;50.978;13.720;2022-12-05T13:21:05;98335.69;;;7.08;84.48
34979;BME280;21185;50.978;13.720;2022-12-05T13:26:10;98333.22;;;7.06;84.44
34979;BME280;21185;50.978;13.720;2022-12-05T13:31:12;98336.75;;;7.05;84.61
34979;BME280;21185;50.978;13.720;2022-12-05T13:36:19;98348.19;;;7.03;84.50
34979;BME280;21185;50.978;13.720;2022-12-05T13:41:43;98350.91;;;7.01;84.45
34979;BME280;21185;50.978;13.720;2022-12-05T13:47:05;98352.66;;;7.01;84.48
34979;BME280;21185;50.978;13.720;2022-12-05T13:52:15;98357.69;;;7.02;84.59
34979;BME280;21185;50.978;13.720;2022-12-05T14:07:44;98348.44;;;7.00;84.44
34979;BME280;21185;50.978;13.720;2022-12-05T14:12:52;98346.69;;;7.00;84.32
34979;BME280;21185;50.978;13.720;2022-12-05T14:17:59;98355.25;;;7.01;84.51
34979;BME280;21185;50.978;13.720;2022-12-05T14:33:34;98356.47;;;6.97;84.23
34979;BME280;21185;50.978;13.720;2022-12-05T14:38:36;98364.19;;;6.97;84.28
34979;BME280;21185;50.978;13.720;2022-12-05T14:43:39;98354.84;;;6.96;84.34
34979;BME280;21185;50.978;13.720;2022-12-05T14:48:42;98357.41;;;6.96;84.24
34979;BME280;21185;50.978;13.720;2022-12-05T14:53:49;98360.94;;;6.95;84.22
34979;BME280;21185;50.978;13.720;2022-12-05T14:59:01;98359.19;;;6.95;84.20
34979;BME280;21185;50.978;13.720;2022-12-05T15:04:32;98365.28;;;6.94;84.20
34979;BME280;21185;50.978;13.720;2022-12-05T15:15:11;98362.84;;;6.93;84.26
34979;BME280;21185;50.978;13.720;2022-12-05T15:31:47;98374.53;;;6.87;84.14
34979;BME280;21185;50.978;13.720;2022-12-05T15:37:03;98374.53;;;6.87;84.35
34979;BME280;21185;50.978;13.720;2022-12-05T15:42:14;98372.75;;;6.88;84.16
34979;BME280;21185;50.978;13.720;2022-12-05T15:47:23;98383.09;;;6.88;84.30
34979;BME280;21185;50.978;13.720;2022-12-05T15:52:32;98373.72;;;6.87;84.33
34979;BME280;21185;50.978;13.720;2022-12-05T15:57:45;98378.06;;;6.86;84.16
34979;BME280;21185;50.978;13.720;2022-12-05T16:02:53;98392.72;;;6.86;84.23
34979;BME280;21185;50.978;13.720;2022-12-05T16:07:57;98388.50;;;6.85;84.27
34979;BME280;21185;50.978;13.720;2022-12-05T16:13:04;98397.34;;;6.82;84.28
34979;BME280;21185;50.978;13.720;2022-12-05T16:18:25;98399.09;;;6.81;84.31
34979;BME280;21185;50.978;13.720;2022-12-05T16:23:31;98397.34;;;6.82;84.16
34979;BME280;21185;50.978;13.720;2022-12-05T16:28:33;98400.88;;;6.81;84.12
34979;BME280;21185;50.978;13.720;2022-12-05T16:33:35;98402.50;;;6.82;84.31
34979;BME280;21185;50.978;13.720;2022-12-05T16:38:44;98405.06;;;6.82;84.25
34979;BME280;21185;50.978;13.720;2022-12-05T16:43:47;98407.66;;;6.82;84.26
34979;BME280;21185;50.978;13.720;2022-12-05T16:54:22;98399.22;;;6.80;84.23
34979;BME280;21185;50.978;13.720;2022-12-05T17:04:33;98402.75;;;6.79;84.08
34979;BME280;21185;50.978;13.720;2022-12-05T17:09:35;98400.31;;;6.77;84.12
34979;BME280;21185;50.978;13.720;2022-12-05T17:14:37;98399.50;;;6.77;84.08
34979;BME280;21185;50.978;13.720;2022-12-05T17:19:39;98401.13;;;6.78;84.24
34979;BME280;21185;50.978;13.720;2022-12-05T17:24:40;98396.91;;;6.77;84.20
34979;BME280;21185;50.978;13.720;2022-12-05T17:29:42;98402.22;;;6.75;84.11
34979;BME280;21185;50.978;13.720;2022-12-05T17:34:44;98403.03;;;6.76;83.97
34979;BME280;21185;50.978;13.720;2022-12-05T17:39:46;98403.03;;;6.76;84.21
34979;BME280;21185;50.978;13.720;2022-12-05T17:44:48;98401.41;;;6.75;84.10
34979;BME280;21185;50.978;13.720;2022-12-05T17:49:50;98402.63;;;6.71;84.13
34979;BME280;21185;50.978;13.720;2022-12-05T17:54:51;98417.41;;;6.69;84.18
34979;BME280;21185;50.978;13.720;2022-12-05T17:59:53;98413.19;;;6.68;83.95
34979;BME280;21185;50.978;13.720;2022-12-05T18:04:55;98419.31;;;6.67;84.12
34979;BME280;21185;50.978;13.720;2022-12-05T18:09:57;98425.69;;;6.63;83.94
34979;BME280;21185;50.978;13.720;2022-12-05T18:15:00;98426.63;;;6.62;84.06
34979;BME280;21185;50.978;13.720;2022-12-05T18:20:03;98419.03;;;6.60;83.92
34979;BME280;21185;50.978;13.720;2022-12-05T18:25:06;98425.00;;;6.61;84.00
34979;BME280;21185;50.978;13.720;2022-12-05T18:30:09;98425.94;;;6.60;84.03
34979;BME280;21185;50.978;13.720;2022-12-05T18:35:13;98432.06;;;6.59;83.80
34979;BME280;21185;50.978;13.720;2022-12-05T18:40:15;98433.94;;;6.57;83.89
34979;BME280;21185;50.978;13.720;2022-12-05T18:45:17;98435.03;;;6.54;83.73
34979;BME280;21185;50.978;13.720;2022-12-05T18:50:19;98438.69;;;6.52;83.80
34979;BME280;21185;50.978;13.720;2022-12-05T18:55:21;98444.78;;;6.50;83.94
34979;BME280;21185;50.978;13.720;2022-12-05T19:00:43;98447.63;;;6.47;83.78
34979;BME280;21185;50.978;13.720;2022-12-05T19:05:45;98453.72;;;6.46;83.79
34979;BME280;21185;50.978;13.720;2022-12-05T19:10:46;98448.72;;;6.45;83.83
34979;BME280;21185;50.978;13.720;2022-12-05T19:15:48;98449.66;;;6.44;83.78
34979;BME280;21185;50.978;13.720;2022-12-05T19:20:50;98446.25;;;6.43;83.97
34979;BME280;21185;50.978;13.720;2022-12-05T19:25:59;98441.09;;;6.43;83.96
34979;BME280;21185;50.978;13.720;2022-12-05T19:31:03;98444.50;;;6.44;83.87
34979;BME280;21185;50.978;13.720;2022-12-05T19:36:13;98448.97;;;6.42;83.83
34979;BME280;21185;50.978;13.720;2022-12-05T19:41:19;98444.63;;;6.42;84.10
34979;BME280;21185;50.978;13.720;2022-12-05T19:46:23;98442.06;;;6.42;83.96
34979;BME280;21185;50.978;13.720;2022-12-05T19:51:26;98444.63;;;6.42;84.00
34979;BME280;21185;50.978;13.720;2022-12-05T19:56:30;98434.47;;;6.41;84.04
34979;BME280;21185;50.978;13.720;2022-12-05T20:01:34;98445.59;;;6.41;84.19
34979;BME280;21185;50.978;13.720;2022-12-05T20:06:41;98438.78;;;6.40;84.09
34979;BME280;21185;50.978;13.720;2022-12-05T20:11:45;98437.97;;;6.40;84.02
34979;BME280;21185;50.978;13.720;2022-12-05T20:16:56;98445.72;;;6.40;84.01
34979;BME280;21185;50.978;13.720;2022-12-05T20:21:57;98442.31;;;6.39;84.09
34979;BME280;21185;50.978;13.720;2022-12-05T20:26:59;98444.34;;;6.36;83.95
34979;BME280;21185;50.978;13.720;2022-12-05T20:32:02;98445.56;;;6.32;83.93
34979;BME280;21185;50.978;13.720;2022-12-05T20:37:04;98430.47;;;6.27;83.93
34979;BME280;21185;50.978;13.720;2022-12-05T20:42:09;98422.06;;;6.25;83.95
34979;BME280;21185;50.978;13.720;2022-12-05T20:47:11;98418.94;;;6.22;84.05
34979;BME280;21185;50.978;13.720;2022-12-05T20:52:13;98419.88;;;6.21;83.96
34979;BME280;21185;50.978;13.720;2022-12-05T20:57:15;98414.72;;;6.21;84.10
34979;BME280;21185;50.978;13.720;2022-12-05T21:02:17;98419.19;;;6.18;83.92
34979;BME280;21185;50.978;13.720;2022-12-05T21:07:19;98420.28;;;6.16;83.84
34979;BME280;21185;50.978;13.720;2022-12-05T21:12:21;98424.75;;;6.14;83.90
34979;BME280;21185;50.978;13.720;2022-12-05T21:17:23;98420.53;;;6.13;83.88
34979;BME280;21185;50.978;13.720;2022-12-05T21:22:25;98415.38;;;6.13;83.96
34979;BME280;21185;50.978;13.720;2022-12-05T21:27:26;98415.38;;;6.13;83.98
34979;BME280;21185;50.978;13.720;2022-12-05T21:32:28;98417.00;;;6.14;83.83
34979;BME280;21185;50.978;13.720;2022-12-05T21:37:30;98408.59;;;6.12;83.84
34979;BME280;21185;50.978;13.720;2022-12-05T21:42:32;98414.84;;;6.09;83.94
34979;BME280;21185;50.978;13.720;2022-12-05T21:47:34;98416.84;;;6.06;83.92
34979;BME280;21185;50.978;13.720;2022-12-05T21:52:37;98394.88;;;6.02;83.65
34979;BME280;21185;50.978;13.720;2022-12-05T21:57:41;98398.41;;;6.01;83.75
34979;BME280;21185;50.978;13.720;2022-12-05T22:02:43;98405.31;;;6.00;83.65
34979;BME280;21185;50.978;13.720;2022-12-05T22:07:45;98411.53;;;5.98;83.78
34979;BME280;21185;50.978;13.720;2022-12-05T22:12:47;98403.13;;;5.96;83.75
34979;BME280;21185;50.978;13.720;2022-12-05T22:17:49;98407.47;;;5.95;83.82
34979;BME280;21185;50.978;13.720;2022-12-05T22:22:51;98405.00;;;5.94;83.70
34979;BME280;21185;50.978;13.720;2022-12-05T22:27:53;98401.50;;;5.95;83.72
34979;BME280;21185;50.978;13.720;2022-12-05T22:32:56;98398.09;;;5.94;83.58
34979;BME280;21185;50.978;13.720;2022-12-05T22:37:58;98383.59;;;5.93;83.60
34979;BME280;21185;50.978;13.720;2022-12-05T22:42:59;98393.09;;;5.93;83.64
34979;BME280;21185;50.978;13.720;2022-12-05T22:48:01;98383.72;;;5.92;83.58
34979;BME280;21185;50.978;13.720;2022-12-05T22:53:03;98382.31;;;5.88;83.44
34979;BME280;21185;50.978;13.720;2022-12-05T22:58:05;98381.75;;;5.84;83.46
34979;BME280;21185;50.978;13.720;2022-12-05T23:03:07;98380.25;;;5.81;83.43
34979;BME280;21185;50.978;13.720;2022-12-05T23:08:11;98362.25;;;5.81;83.48
34979;BME280;21185;50.978;13.720;2022-12-05T23:13:13;98369.84;;;5.83;83.58
34979;BME280;21185;50.978;13.720;2022-12-05T23:18:14;98371.22;;;5.87;83.54
34979;BME280;21185;50.978;13.720;2022-12-05T23:23:16;98355.63;;;5.89;83.48
34979;BME280;21185;50.978;13.720;2022-12-05T23:28:18;98340.16;;;5.89;83.48
34979;BME280;21185;50.978;13.720;2022-12-05T23:33:20;98335.16;;;5.87;83.42
34979;BME280;21185;50.978;13.720;2022-12-05T23:38:23;98334.34;;;5.86;83.64
34979;BME280;21185;50.978;13.720;2022-12-05T23:43:25;98327.56;;;5.85;83.57
34979;BME280;21185;50.978;13.720;2022-12-05T23:48:27;98324.16;;;5.85;83.45
34979;BME280;21185;50.978;13.720;2022-12-05T23:53:32;98329.31;;;5.85;83.50
34979;BME280;21185;50.978;13.720;2022-12-05T23:58:34;98332.84;;;5.84;83.28
